Time;durP1;ratioP1;P1;durP2;ratioP2;P2;SDS_P1;SDS_P2;PMS_P1;PMS_P2;Temp;Humidity;BMP_temperature;BMP_pressure;BME280_temperature;BME280_humidity;BME280_pressure;Samples;Min_cycle;Max_cycle;Signal;HPM_P1;HPM_P2
2024/01/20 00:02:23;;;;;;;11.70;9.30;;;0.00;69.30;;;;;;6249857;28;20242;-79
2024/01/20 00:05:26;;;;;;;15.67;10.00;;;0.00;69.30;;;;;;6260889;28;20774;-78
2024/01/20 00:08:29;;;;;;;12.93;10.00;;;-0.10;69.50;;;;;;6251931;28;20308;-79
2024/01/20 00:11:34;;;;;;;11.07;9.60;;;-0.10;69.40;;;;;;6262209;28;20236;-79
2024/01/20 00:14:37;;;;;;;12.77;9.97;;;0.00;69.40;;;;;;6251147;28;20231;-77
2024/01/20 00:17:40;;;;;;;10.90;9.40;;;0.00;69.40;;;;;;6259039;28;20319;-79
2024/01/20 00:20:45;;;;;;;12.93;9.70;;;0.00;69.30;;;;;;6254567;28;20244;-79
2024/01/20 00:23:49;;;;;;;11.97;9.20;;;-0.10;69.30;;;;;;6246516;28;20258;-79
2024/01/20 00:26:59;;;;;;;12.60;9.83;;;-0.10;69.50;;;;;;6246683;28;20260;-78
2024/01/20 00:30:04;;;;;;;12.47;9.70;;;-0.10;69.70;;;;;;6263183;28;20368;-79
2024/01/20 00:33:08;;;;;;;10.73;9.63;;;-0.10;69.90;;;;;;6237209;28;20245;-79
2024/01/20 00:36:12;;;;;;;10.67;9.57;;;-0.10;69.90;;;;;;6275195;28;20701;-79
2024/01/20 00:39:15;;;;;;;13.63;9.33;;;-0.10;69.90;;;;;;6255220;28;20621;-79
2024/01/20 00:42:20;;;;;;;9.30;8.47;;;-0.10;69.80;;;;;;6241019;28;20226;-78
2024/01/20 00:45:23;;;;;;;15.50;9.93;;;-0.10;69.80;;;;;;6264057;28;20296;-78
2024/01/20 00:48:26;;;;;;;14.30;9.40;;;-0.10;69.60;;;;;;6262108;28;20240;-79
2024/01/20 00:51:29;;;;;;;13.80;9.47;;;-0.10;69.60;;;;;;6247537;28;20238;-78
2024/01/20 00:54:34;;;;;;;10.57;9.50;;;-0.10;69.60;;;;;;6258380;28;20299;-78
2024/01/20 00:57:38;;;;;;;9.87;8.93;;;-0.10;69.80;;;;;;6227636;28;20231;-79
2024/01/20 01:00:41;;;;;;;13.00;9.30;;;-0.10;69.50;;;;;;6253410;28;20935;-80
2024/01/20 01:03:44;;;;;;;13.47;9.30;;;-0.10;69.20;;;;;;6247801;28;20238;-78
2024/01/20 01:06:48;;;;;;;13.70;10.33;;;-0.10;69.30;;;;;;6252295;28;20734;-78
2024/01/20 01:09:51;;;;;;;9.90;8.90;;;-0.10;69.60;;;;;;6253222;28;20855;-79
2024/01/20 01:12:56;;;;;;;11.67;9.37;;;-0.20;69.60;;;;;;6257969;28;20274;-79
2024/01/20 01:15:59;;;;;;;16.63;10.03;;;-0.20;69.80;;;;;;6254319;28;20270;-80
2024/01/20 01:19:02;;;;;;;13.20;9.87;;;-0.20;69.80;;;;;;6283948;28;20221;-81
2024/01/20 01:22:05;;;;;;;13.67;10.03;;;-0.30;70.00;;;;;;6243187;28;20231;-78
2024/01/20 01:25:09;;;;;;;13.53;9.63;;;-0.30;70.20;;;;;;6252133;28;20241;-80
2024/01/20 01:28:13;;;;;;;11.80;10.40;;;-0.30;70.30;;;;;;6263036;28;20238;-78
2024/01/20 01:31:16;;;;;;;11.63;9.70;;;-0.30;70.30;;;;;;6253151;28;20323;-79
2024/01/20 01:34:20;;;;;;;13.20;10.47;;;-0.20;70.10;;;;;;6246655;28;20325;-80
2024/01/20 01:37:23;;;;;;;17.27;9.87;;;-0.20;70.10;;;;;;6256397;28;20319;-81
2024/01/20 01:40:26;;;;;;;12.07;10.90;;;-0.20;70.00;;;;;;6254594;28;20317;-77
2024/01/20 01:43:31;;;;;;;17.00;9.97;;;-0.30;70.10;;;;;;6251223;28;20242;-79
2024/01/20 01:46:34;;;;;;;11.90;10.03;;;-0.30;70.10;;;;;;6249111;28;20738;-80
2024/01/20 01:49:38;;;;;;;14.30;10.70;;;-0.30;70.30;;;;;;6251825;28;20807;-76
2024/01/20 01:52:48;;;;;;;14.53;10.17;;;-0.30;70.30;;;;;;6252538;28;20255;-77
2024/01/20 01:55:52;;;;;;;16.70;12.50;;;-0.30;70.40;;;;;;6258975;28;20258;-79
2024/01/20 01:58:58;;;;;;;16.73;10.77;;;-0.30;70.40;;;;;;6248437;28;20250;-80
2024/01/20 02:02:01;;;;;;;17.13;11.47;;;-0.30;70.40;;;;;;6251283;28;20766;-77
2024/01/20 02:05:05;;;;;;;14.97;10.67;;;-0.30;70.40;;;;;;6251966;28;20269;-79
2024/01/20 02:08:09;;;;;;;16.07;10.97;;;-0.30;70.50;;;;;;6245401;28;20238;-78
2024/01/20 02:11:16;;;;;;;15.10;12.60;;;-0.40;70.60;;;;;;6247384;28;20242;-78
2024/01/20 02:14:21;;;;;;;14.93;11.13;;;-0.40;70.70;;;;;;6245715;28;20246;-79
2024/01/20 02:17:25;;;;;;;12.73;11.17;;;-0.40;70.80;;;;;;6258695;28;20237;-79
2024/01/20 02:20:28;;;;;;;15.83;11.80;;;-0.40;70.70;;;;;;6259402;28;20865;-79
2024/01/20 02:23:38;;;;;;;12.63;10.47;;;-0.40;70.80;;;;;;6260771;28;20736;-80
2024/01/20 02:26:41;;;;;;;12.80;11.50;;;-0.40;70.90;;;;;;6249229;28;20238;-80
2024/01/20 02:29:44;;;;;;;20.90;11.33;;;-0.40;70.90;;;;;;6246976;28;20725;-79
2024/01/20 02:32:47;;;;;;;16.70;11.07;;;-0.30;70.80;;;;;;6252535;28;20321;-79
2024/01/20 02:35:52;;;;;;;17.33;11.93;;;-0.40;71.00;;;;;;6253227;28;20230;-78
2024/01/20 02:38:57;;;;;;;18.93;12.47;;;-0.30;71.10;;;;;;6263240;28;20458;-77
2024/01/20 02:42:00;;;;;;;15.23;11.80;;;-0.30;71.10;;;;;;6254784;28;20231;-80
2024/01/20 02:45:04;;;;;;;15.63;12.57;;;-0.30;71.20;;;;;;6247828;28;20231;-80
2024/01/20 02:48:09;;;;;;;19.57;11.90;;;-0.30;71.30;;;;;;6251260;28;20321;-80
2024/01/20 02:51:13;;;;;;;13.13;11.37;;;-0.10;71.20;;;;;;6258596;28;20233;-80
2024/01/20 02:54:17;;;;;;;15.13;12.67;;;-0.10;71.20;;;;;;6244288;28;20304;-78
2024/01/20 02:57:20;;;;;;;14.53;12.17;;;-0.10;71.00;;;;;;6244498;28;20342;-79
2024/01/20 03:00:24;;;;;;;15.30;11.90;;;-0.10;70.90;;;;;;6241031;28;20376;-80
2024/01/20 03:03:27;;;;;;;15.10;11.77;;;-0.10;71.10;;;;;;6239905;28;20952;-80
2024/01/20 03:06:31;;;;;;;17.63;12.07;;;-0.10;71.10;;;;;;6251889;28;20238;-80
2024/01/20 03:09:37;;;;;;;14.90;11.63;;;-0.10;71.10;;;;;;6251945;28;20256;-79
2024/01/20 03:12:41;;;;;;;15.63;12.03;;;0.00;70.90;;;;;;6243022;28;20230;-79
2024/01/20 03:15:44;;;;;;;16.00;12.70;;;-0.10;70.90;;;;;;6260574;28;20282;-78
2024/01/20 03:18:47;;;;;;;17.30;12.63;;;0.00;71.00;;;;;;6244269;28;20306;-80
2024/01/20 03:21:51;;;;;;;14.33;12.83;;;0.00;70.90;;;;;;6250256;28;20245;-78
2024/01/20 03:24:55;;;;;;;16.73;12.23;;;0.00;70.90;;;;;;6259556;28;20273;-79
2024/01/20 03:27:59;;;;;;;14.30;11.50;;;0.00;71.00;;;;;;6259691;28;20313;-79
2024/01/20 03:31:02;;;;;;;19.43;12.27;;;0.00;71.00;;;;;;6256589;28;20233;-80
2024/01/20 03:34:05;;;;;;;20.00;13.03;;;0.00;71.20;;;;;;6260218;28;20230;-79
2024/01/20 03:37:08;;;;;;;17.53;12.93;;;0.00;71.30;;;;;;6249877;28;21220;-80
2024/01/20 03:40:13;;;;;;;16.23;12.77;;;0.00;71.20;;;;;;6258090;28;20272;-79
2024/01/20 03:43:16;;;;;;;16.73;13.20;;;0.00;71.40;;;;;;6265366;28;20724;-77
2024/01/20 03:46:19;;;;;;;16.93;13.17;;;0.00;71.50;;;;;;6249529;28;20236;-79
2024/01/20 03:49:24;;;;;;;15.40;11.60;;;0.00;71.60;;;;;;6258117;28;20238;-78
2024/01/20 03:52:27;;;;;;;15.57;13.70;;;0.00;71.80;;;;;;6261915;28;20241;-81
2024/01/20 03:55:32;;;;;;;14.73;12.80;;;0.00;71.70;;;;;;6287991;28;20242;-81
2024/01/20 03:58:35;;;;;;;14.73;12.90;;;0.00;71.70;;;;;;6242619;28;20246;-78
2024/01/20 04:01:39;;;;;;;17.57;13.47;;;0.00;71.60;;;;;;6246405;28;20242;-80
2024/01/20 04:04:42;;;;;;;14.50;12.93;;;0.00;71.80;;;;;;6244297;28;20831;-80
2024/01/20 04:07:46;;;;;;;18.30;13.80;;;0.00;71.60;;;;;;6250592;28;20245;-80
2024/01/20 04:10:50;;;;;;;18.50;12.83;;;0.10;71.60;;;;;;6254258;28;20682;-79
2024/01/20 04:13:53;;;;;;;15.83;13.67;;;0.10;71.70;;;;;;6253939;28;20317;-80
2024/01/20 04:16:57;;;;;;;15.30;13.40;;;0.10;71.50;;;;;;6245893;28;20389;-77
2024/01/20 04:20:00;;;;;;;16.87;12.33;;;0.00;71.50;;;;;;6261820;28;20234;-79
2024/01/20 04:23:03;;;;;;;17.87;13.43;;;0.10;71.40;;;;;;6245109;28;20317;-79
2024/01/20 04:26:08;;;;;;;19.77;13.67;;;0.10;71.40;;;;;;6275609;28;20342;-78
2024/01/20 04:29:11;;;;;;;15.10;13.50;;;0.10;71.50;;;;;;6249365;28;20267;-80
2024/01/20 04:32:14;;;;;;;16.30;12.80;;;0.00;71.30;;;;;;6248950;28;20238;-81
2024/01/20 04:35:18;;;;;;;17.40;12.77;;;0.00;71.50;;;;;;6261788;28;20268;-79
2024/01/20 04:38:21;;;;;;;20.73;13.07;;;0.00;71.70;;;;;;6244886;28;20321;-79
2024/01/20 04:41:26;;;;;;;15.87;12.40;;;0.00;71.90;;;;;;6256607;28;20308;-81
2024/01/20 04:44:29;;;;;;;19.57;13.93;;;0.00;71.70;;;;;;6256344;28;20237;-80
2024/01/20 04:47:33;;;;;;;14.43;12.97;;;0.00;71.80;;;;;;6257222;28;20891;-80
2024/01/20 04:50:36;;;;;;;16.07;12.87;;;0.00;71.80;;;;;;6253570;28;20360;-79
2024/01/20 04:53:39;;;;;;;14.20;12.33;;;-0.10;72.00;;;;;;6263254;28;20234;-81
2024/01/20 04:56:43;;;;;;;15.07;13.03;;;-0.10;71.80;;;;;;6252048;28;20238;-78
2024/01/20 04:59:47;;;;;;;17.37;13.13;;;-0.10;71.80;;;;;;6269918;28;20312;-80
2024/01/20 05:02:50;;;;;;;17.40;13.07;;;-0.10;72.00;;;;;;6251776;28;20235;-81
2024/01/20 05:05:53;;;;;;;15.70;12.20;;;-0.10;72.00;;;;;;6263947;28;20597;-80
2024/01/20 05:08:57;;;;;;;17.55;12.80;;;-0.10;72.00;;;;;;6257463;28;20405;-77
2024/01/20 05:12:01;;;;;;;21.10;14.07;;;-0.10;72.20;;;;;;6260320;28;20286;-79
2024/01/20 05:15:11;;;;;;;15.50;12.80;;;-0.10;72.10;;;;;;6254774;28;20246;-79
2024/01/20 05:18:15;;;;;;;16.00;13.50;;;-0.10;72.20;;;;;;6261788;28;20233;-77
2024/01/20 05:21:18;;;;;;;19.60;13.07;;;-0.10;72.20;;;;;;6253599;28;20249;-77
2024/01/20 05:24:21;;;;;;;13.87;12.07;;;-0.10;72.20;;;;;;6260571;28;20242;-78
2024/01/20 05:27:26;;;;;;;14.50;12.97;;;-0.10;72.40;;;;;;6251684;28;20230;-78
2024/01/20 05:30:29;;;;;;;18.20;12.83;;;0.00;72.20;;;;;;6252706;28;20245;-79
2024/01/20 05:33:33;;;;;;;21.17;14.23;;;0.00;72.10;;;;;;6251745;28;20256;-80
2024/01/20 05:36:36;;;;;;;16.53;13.47;;;0.00;72.00;;;;;;6252898;28;20788;-77
2024/01/20 05:39:39;;;;;;;16.60;14.03;;;0.00;71.80;;;;;;6256058;28;20246;-79
2024/01/20 05:42:43;;;;;;;16.53;13.67;;;0.00;71.90;;;;;;6256520;28;20242;-78
2024/01/20 05:45:47;;;;;;;18.73;14.20;;;0.00;71.90;;;;;;6254965;28;20321;-79
2024/01/20 05:48:50;;;;;;;17.37;13.37;;;0.20;71.70;;;;;;6248818;28;20261;-79
2024/01/20 05:51:53;;;;;;;18.57;13.70;;;0.10;71.80;;;;;;6248233;28;20238;-81
2024/01/20 05:54:56;;;;;;;17.80;14.47;;;0.20;72.00;;;;;;6244244;28;20276;-78
2024/01/20 05:58:01;;;;;;;17.00;13.33;;;0.30;71.90;;;;;;6259534;28;20272;-78
2024/01/20 06:01:04;;;;;;;18.87;14.03;;;0.30;71.90;;;;;;6255692;28;20230;-83
2024/01/20 06:04:07;;;;;;;19.03;14.10;;;0.30;71.80;;;;;;6257263;28;20241;-79
2024/01/20 06:07:10;;;;;;;16.13;13.17;;;0.30;71.90;;;;;;6251214;28;20696;-81
2024/01/20 06:10:14;;;;;;;15.20;13.57;;;0.30;71.90;;;;;;6263430;28;20241;-79
2024/01/20 06:13:19;;;;;;;18.83;14.33;;;0.20;72.00;;;;;;6262466;28;20485;-81
2024/01/20 06:16:23;;;;;;;15.67;13.37;;;0.20;72.10;;;;;;6260634;28;20253;-80
2024/01/20 06:19:26;;;;;;;20.03;13.53;;;0.20;72.10;;;;;;6258208;28;20287;-82
2024/01/20 06:22:29;;;;;;;17.40;13.37;;;0.20;72.10;;;;;;6256330;28;20262;-82
2024/01/20 06:25:32;;;;;;;18.83;13.10;;;0.10;72.00;;;;;;6262931;28;20236;-80
2024/01/20 06:28:37;;;;;;;17.10;13.30;;;0.00;71.90;;;;;;6263177;28;20919;-77
2024/01/20 06:31:40;;;;;;;17.13;13.10;;;0.00;72.20;;;;;;6244398;28;20241;-78
2024/01/20 06:34:43;;;;;;;16.97;13.93;;;0.00;72.30;;;;;;6254026;28;20241;-77
2024/01/20 06:37:46;;;;;;;17.40;13.60;;;-0.10;72.50;;;;;;6294139;28;20232;-78
2024/01/20 06:40:49;;;;;;;17.27;13.53;;;0.00;72.50;;;;;;6267632;28;20230;-79
2024/01/20 06:43:53;;;;;;;17.20;13.87;;;0.00;72.40;;;;;;6250176;28;20313;-77
2024/01/20 06:46:56;;;;;;;17.47;14.03;;;0.00;72.60;;;;;;6249119;28;20385;-80
2024/01/20 06:50:00;;;;;;;16.50;14.03;;;-0.10;72.80;;;;;;6251421;28;20229;-78
2024/01/20 06:53:03;;;;;;;17.27;14.10;;;-0.10;73.00;;;;;;6256711;28;20342;-80
2024/01/20 06:56:06;;;;;;;18.87;13.20;;;0.00;73.10;;;;;;6250024;28;20230;-78
2024/01/20 06:59:11;;;;;;;16.50;14.23;;;-0.10;73.00;;;;;;6252533;28;20271;-79
2024/01/20 07:02:14;;;;;;;20.67;13.73;;;0.00;73.00;;;;;;6257122;28;20233;-78
2024/01/20 07:05:18;;;;;;;15.47;13.70;;;0.00;73.00;;;;;;6263779;28;20920;-77
2024/01/20 07:08:21;;;;;;;20.07;15.27;;;0.00;73.00;;;;;;6256048;28;20639;-77
2024/01/20 07:11:26;;;;;;;18.33;13.50;;;0.00;73.10;;;;;;6259567;28;20896;-79
2024/01/20 07:14:30;;;;;;;18.50;13.70;;;0.00;73.30;;;;;;6252399;28;20253;-78
2024/01/20 07:17:33;;;;;;;19.03;14.03;;;0.00;73.40;;;;;;6246549;28;20234;-80
2024/01/20 07:20:36;;;;;;;20.80;14.40;;;0.10;73.30;;;;;;6250854;28;20254;-78
2024/01/20 07:23:40;;;;;;;20.60;14.70;;;0.10;73.20;;;;;;6256702;28;20240;-77
2024/01/20 07:26:43;;;;;;;22.97;14.10;;;0.20;73.20;;;;;;6240083;28;20777;-80
2024/01/20 07:29:47;;;;;;;17.90;14.63;;;0.20;73.20;;;;;;6249764;28;20222;-81
2024/01/20 07:32:50;;;;;;;21.63;14.53;;;0.30;73.10;;;;;;6246042;28;20262;-76
2024/01/20 07:35:53;;;;;;;19.23;14.30;;;0.40;72.90;;;;;;6254370;28;20718;-78
2024/01/20 07:38:57;;;;;;;19.73;13.63;;;0.40;72.80;;;;;;6256168;28;20227;-79
2024/01/20 07:42:00;;;;;;;17.07;14.10;;;0.40;72.90;;;;;;6225858;28;20223;-79
2024/01/20 07:45:06;;;;;;;19.37;14.20;;;0.50;72.70;;;;;;6236648;28;20724;-78
2024/01/20 07:48:09;;;;;;;17.53;14.60;;;0.60;72.30;;;;;;6226317;28;20238;-79
2024/01/20 07:51:12;;;;;;;19.43;14.87;;;0.50;72.60;;;;;;6233048;28;20234;-77
2024/01/20 07:54:16;;;;;;;16.67;13.70;;;0.60;72.50;;;;;;6231466;28;20257;-77
2024/01/20 07:57:19;;;;;;;19.17;13.87;;;0.60;72.30;;;;;;6228789;28;20227;-77
2024/01/20 08:00:24;;;;;;;17.50;14.10;;;0.60;72.20;;;;;;6235700;28;20234;-77
2024/01/20 08:03:28;;;;;;;19.73;14.47;;;0.70;72.00;;;;;;6236779;28;20230;-78
2024/01/20 08:06:31;;;;;;;15.47;13.53;;;0.80;71.80;;;;;;6231097;28;20246;-80
2024/01/20 08:09:34;;;;;;;18.03;14.60;;;0.60;72.10;;;;;;6247862;28;20373;-79
2024/01/20 08:12:38;;;;;;;21.37;14.50;;;0.60;72.10;;;;;;6236844;28;20770;-78
2024/01/20 08:15:43;;;;;;;20.60;14.53;;;0.60;71.90;;;;;;6226990;28;20319;-77
2024/01/20 08:18:46;;;;;;;17.77;13.87;;;0.60;71.80;;;;;;6231642;28;20241;-78
2024/01/20 08:21:50;;;;;;;17.30;14.03;;;0.60;71.90;;;;;;6239338;28;20621;-79
2024/01/20 08:24:53;;;;;;;14.53;12.90;;;0.70;71.80;;;;;;6221220;28;20294;-77
2024/01/20 08:27:56;;;;;;;18.13;13.83;;;0.70;71.70;;;;;;6231263;28;20312;-80
2024/01/20 08:31:01;;;;;;;18.90;14.43;;;0.60;71.80;;;;;;6234126;28;20266;-77
2024/01/20 08:34:04;;;;;;;15.40;13.57;;;0.70;71.70;;;;;;6232631;28;20234;-78
2024/01/20 08:37:08;;;;;;;17.50;13.93;;;0.70;71.70;;;;;;6236680;28;20239;-77
2024/01/20 08:40:12;;;;;;;18.50;14.70;;;0.70;71.80;;;;;;6242855;28;20825;-77
2024/01/20 08:43:15;;;;;;;17.33;14.00;;;0.60;72.00;;;;;;6230985;28;20242;-79
2024/01/20 08:46:20;;;;;;;15.73;13.70;;;0.70;71.80;;;;;;6232629;28;20714;-79
2024/01/20 08:49:23;;;;;;;20.07;13.97;;;0.80;71.60;;;;;;6235474;28;20239;-79
2024/01/20 08:52:26;;;;;;;18.57;13.73;;;0.80;71.40;;;;;;6231203;28;20238;-78
2024/01/20 08:55:30;;;;;;;18.47;14.23;;;0.80;71.50;;;;;;6202913;28;1090050;-79
2024/01/20 08:58:33;;;;;;;14.90;13.13;;;1.00;71.40;;;;;;6262310;28;20234;-80
2024/01/20 09:01:41;;;;;;;16.03;12.30;;;1.00;71.40;;;;;;6262924;28;20686;-79
2024/01/20 09:04:44;;;;;;;18.40;13.80;;;0.90;71.30;;;;;;6251604;28;20235;-80
2024/01/20 09:07:47;;;;;;;15.07;12.97;;;0.90;71.50;;;;;;6259789;28;20323;-78
2024/01/20 09:10:50;;;;;;;15.33;13.60;;;1.00;71.30;;;;;;6260523;28;20257;-80
2024/01/20 09:13:53;;;;;;;16.57;13.50;;;1.00;71.30;;;;;;6249098;28;20238;-79
2024/01/20 09:16:57;;;;;;;19.97;14.23;;;1.00;71.00;;;;;;6251325;28;20505;-77
2024/01/20 09:20:01;;;;;;;14.47;13.07;;;1.10;71.00;;;;;;6258688;28;20678;-78
2024/01/20 09:23:05;;;;;;;18.57;13.60;;;1.00;71.10;;;;;;6245840;28;20277;-80
2024/01/20 09:26:08;;;;;;;15.00;13.23;;;1.00;71.10;;;;;;6258910;28;20280;-78
2024/01/20 09:29:11;;;;;;;16.90;13.13;;;1.10;70.90;;;;;;6256351;28;20254;-78
2024/01/20 09:32:16;;;;;;;14.43;12.57;;;1.10;70.70;;;;;;6261605;28;20317;-78
2024/01/20 09:35:20;;;;;;;15.17;12.97;;;1.10;70.80;;;;;;6245792;28;20732;-80
2024/01/20 09:38:26;;;;;;;28.47;14.43;;;1.00;70.90;;;;;;6259887;28;20615;-79
2024/01/20 09:41:31;;;;;;;14.90;13.30;;;1.00;71.10;;;;;;6257186;28;20868;-80
2024/01/20 09:44:34;;;;;;;15.20;13.23;;;1.10;70.90;;;;;;6261612;28;20376;-78
2024/01/20 09:47:38;;;;;;;14.53;12.10;;;1.20;70.80;;;;;;6256481;28;20234;-79
2024/01/20 09:50:42;;;;;;;14.67;11.97;;;1.10;70.80;;;;;;6260673;28;20241;-77
2024/01/20 09:53:45;;;;;;;18.37;12.30;;;1.10;70.90;;;;;;6266658;28;20237;-78
2024/01/20 09:56:48;;;;;;;16.93;12.87;;;1.10;70.80;;;;;;6267519;28;20879;-78
2024/01/20 09:59:53;;;;;;;15.63;12.73;;;1.20;70.60;;;;;;6254454;28;20966;-79
2024/01/20 10:03:01;;;;;;;13.70;12.30;;;1.20;70.50;;;;;;6262690;28;20249;-78
2024/01/20 10:06:05;;;;;;;13.93;12.43;;;1.30;70.20;;;;;;6241307;28;20249;-78
2024/01/20 10:09:08;;;;;;;14.83;12.57;;;1.40;70.30;;;;;;6254394;28;20233;-80
2024/01/20 10:12:11;;;;;;;17.77;12.73;;;1.40;70.10;;;;;;6233551;28;20273;-78
2024/01/20 10:15:14;;;;;;;14.97;12.33;;;1.40;69.90;;;;;;6217721;28;20227;-79
2024/01/20 10:18:19;;;;;;;15.17;12.40;;;1.40;70.10;;;;;;6231015;28;20235;-78
2024/01/20 10:21:22;;;;;;;15.03;12.83;;;1.40;69.60;;;;;;6236183;28;20780;-78
2024/01/20 10:24:26;;;;;;;14.87;12.53;;;1.50;69.20;;;;;;6237350;28;20310;-78
2024/01/20 10:27:29;;;;;;;13.47;12.07;;;1.60;68.80;;;;;;6229158;28;20231;-78
2024/01/20 10:30:32;;;;;;;13.63;12.10;;;1.70;68.50;;;;;;6235242;28;20724;-77
2024/01/20 10:33:37;;;;;;;16.93;13.47;;;1.70;68.40;;;;;;6228623;28;20239;-79
2024/01/20 10:36:45;;;;;;;13.43;12.07;;;1.80;68.40;;;;;;6234572;28;20231;-77
2024/01/20 10:39:48;;;;;;;14.90;12.40;;;1.80;68.00;;;;;;6230883;28;20238;-79
2024/01/20 10:42:56;;;;;;;12.37;11.13;;;1.80;68.20;;;;;;6226154;28;20246;-79
2024/01/20 10:46:04;;;;;;;17.60;13.07;;;1.90;68.00;;;;;;6252492;28;20241;-79
2024/01/20 10:49:11;;;;;;;13.87;12.13;;;1.80;68.00;;;;;;6264647;28;20287;-76
2024/01/20 10:52:14;;;;;;;14.93;12.13;;;1.80;67.90;;;;;;6261250;28;20248;-77
2024/01/20 10:55:19;;;;;;;12.60;11.40;;;1.80;68.00;;;;;;6267530;28;20265;-76
2024/01/20 10:58:28;;;;;;;13.23;11.73;;;2.00;67.60;;;;;;6269120;28;20276;-77
2024/01/20 11:01:31;;;;;;;13.33;11.37;;;2.10;67.50;;;;;;6268809;28;20230;-78
2024/01/20 11:04:39;;;;;;;14.80;11.57;;;2.10;67.20;;;;;;6254956;28;20246;-80
2024/01/20 11:07:44;;;;;;;14.57;12.27;;;1.90;67.70;;;;;;6257097;28;20238;-76
2024/01/20 11:10:47;;;;;;;12.77;11.27;;;2.00;67.50;;;;;;6265685;28;20234;-77
2024/01/20 11:13:50;;;;;;;16.13;11.80;;;2.00;67.60;;;;;;6254881;28;20261;-79
2024/01/20 11:16:55;;;;;;;16.30;11.60;;;2.00;67.40;;;;;;6254760;28;20333;-77
2024/01/20 11:20:08;;;;;;;14.23;12.13;;;2.00;67.50;;;;;;6253357;28;20613;-78
2024/01/20 11:23:11;;;;;;;15.83;12.50;;;2.00;67.90;;;;;;6250594;28;20246;-77
2024/01/20 11:26:14;;;;;;;13.17;11.23;;;1.80;68.30;;;;;;6250344;28;20249;-78
2024/01/20 11:29:27;;;;;;;14.57;12.57;;;1.90;68.30;;;;;;6250004;28;20318;-79
2024/01/20 11:32:30;;;;;;;16.17;12.63;;;1.90;68.20;;;;;;6232976;28;20257;-78
2024/01/20 11:35:37;;;;;;;12.83;11.50;;;1.90;68.20;;;;;;6240037;28;20711;-79
2024/01/20 11:38:41;;;;;;;16.20;12.63;;;1.90;68.40;;;;;;6251886;28;20245;-79
2024/01/20 11:41:46;;;;;;;15.07;12.20;;;2.00;68.20;;;;;;6251982;28;20230;-79
2024/01/20 11:44:49;;;;;;;15.90;12.43;;;2.00;68.20;;;;;;6238049;28;20238;-80
2024/01/20 11:47:52;;;;;;;16.60;13.03;;;2.00;68.20;;;;;;6258756;28;20895;-78
2024/01/20 11:50:57;;;;;;;17.87;12.27;;;2.10;68.20;;;;;;6258687;28;20946;-79
2024/01/20 11:54:00;;;;;;;17.00;12.30;;;2.10;68.20;;;;;;6270638;28;20241;-79
2024/01/20 11:57:04;;;;;;;13.53;12.10;;;2.10;68.10;;;;;;6253987;28;20237;-79
2024/01/20 12:00:11;;;;;;;15.73;11.87;;;2.20;68.00;;;;;;6258494;28;20230;-77
2024/01/20 12:03:14;;;;;;;15.27;11.73;;;2.30;67.60;;;;;;6259539;28;20233;-78
2024/01/20 12:06:19;;;;;;;17.30;11.80;;;2.40;67.50;;;;;;6257100;28;20265;-79
2024/01/20 12:09:22;;;;;;;16.07;11.77;;;2.30;67.60;;;;;;6259897;28;20379;-77
2024/01/20 12:12:26;;;;;;;16.93;11.23;;;2.40;67.50;;;;;;6267095;28;20242;-79
2024/01/20 12:15:33;;;;;;;16.87;11.77;;;2.50;67.20;;;;;;6263618;28;20245;-77
2024/01/20 12:18:37;;;;;;;13.97;11.10;;;2.70;66.60;;;;;;6259852;28;20247;-78
2024/01/20 12:21:42;;;;;;;14.20;11.80;;;2.80;66.30;;;;;;6258854;28;20317;-79
2024/01/20 12:24:48;;;;;;;14.87;11.63;;;2.70;66.50;;;;;;6251403;28;20242;-78
2024/01/20 12:27:52;;;;;;;12.67;11.47;;;2.70;66.50;;;;;;6258100;28;20230;-78
2024/01/20 12:30:56;;;;;;;12.87;10.43;;;2.80;66.20;;;;;;6258635;28;20325;-79
2024/01/20 12:33:59;;;;;;;13.53;10.47;;;3.00;65.70;;;;;;6258760;28;20238;-78
2024/01/20 12:37:04;;;;;;;11.93;10.80;;;3.00;65.30;;;;;;6265192;28;20785;-79
2024/01/20 12:40:11;;;;;;;13.83;11.70;;;2.90;65.40;;;;;;6249682;28;20317;-79
2024/01/20 12:43:14;;;;;;;13.17;10.60;;;2.90;65.70;;;;;;6263885;28;20234;-76
2024/01/20 12:46:17;;;;;;;15.40;11.33;;;2.90;65.70;;;;;;6254706;28;20281;-79
2024/01/20 12:49:20;;;;;;;14.73;10.43;;;3.10;65.60;;;;;;6248118;28;20242;-76
2024/01/20 12:52:26;;;;;;;13.30;10.70;;;3.10;65.30;;;;;;6253428;28;20241;-78
2024/01/20 12:55:30;;;;;;;16.03;10.83;;;3.20;65.10;;;;;;6256687;28;20242;-77
2024/01/20 12:58:33;;;;;;;12.50;10.53;;;3.30;64.60;;;;;;6255343;28;20761;-79
2024/01/20 13:01:37;;;;;;;14.40;11.73;;;3.30;64.30;;;;;;6255229;28;20324;-77
2024/01/20 13:04:42;;;;;;;13.60;11.07;;;3.10;64.70;;;;;;6252369;28;20256;-78
2024/01/20 13:07:46;;;;;;;13.70;10.87;;;2.90;65.10;;;;;;6235925;28;20659;-80
2024/01/20 13:10:50;;;;;;;13.20;10.77;;;2.80;65.60;;;;;;6232350;28;20894;-79
2024/01/20 13:13:53;;;;;;;16.30;10.70;;;2.90;65.20;;;;;;6222085;28;20241;-79
2024/01/20 13:16:56;;;;;;;13.90;10.03;;;2.80;65.30;;;;;;6238671;28;20857;-80
2024/01/20 13:19:59;;;;;;;13.50;10.97;;;2.80;65.50;;;;;;6231885;28;20250;-78
2024/01/20 13:23:05;;;;;;;12.30;10.73;;;2.80;65.20;;;;;;6225028;28;20262;-78
2024/01/20 13:26:08;;;;;;;11.13;10.03;;;2.80;65.30;;;;;;6236370;28;20785;-77
2024/01/20 13:29:12;;;;;;;11.33;10.07;;;2.90;65.40;;;;;;6232723;28;20234;-77
2024/01/20 13:32:15;;;;;;;12.63;10.30;;;2.90;65.10;;;;;;6231404;28;20293;-79
2024/01/20 13:35:18;;;;;;;13.87;10.20;;;2.90;65.00;;;;;;6229252;28;20720;-78
2024/01/20 13:38:23;;;;;;;11.67;9.97;;;2.90;65.20;;;;;;6243971;28;20273;-78
2024/01/20 13:41:29;;;;;;;14.40;10.90;;;2.90;65.30;;;;;;6229366;28;20234;-77
2024/01/20 13:44:32;;;;;;;11.70;10.13;;;3.00;65.20;;;;;;6227471;28;20748;-78
2024/01/20 13:47:36;;;;;;;11.60;10.37;;;3.00;65.10;;;;;;6217035;28;20747;-80
2024/01/20 13:50:40;;;;;;;12.67;11.37;;;3.00;65.50;;;;;;6232225;28;20365;-79
2024/01/20 13:53:45;;;;;;;11.50;10.33;;;2.90;65.50;;;;;;6238810;28;20324;-77
2024/01/20 13:56:49;;;;;;;12.37;11.07;;;3.00;65.60;;;;;;6233076;28;20947;-78
2024/01/20 13:59:52;;;;;;;14.17;10.13;;;3.00;65.60;;;;;;6244077;28;20277;-77
2024/01/20 14:02:55;;;;;;;14.50;10.23;;;3.00;65.70;;;;;;6249532;28;20230;-80
2024/01/20 14:05:58;;;;;;;14.30;10.63;;;2.90;65.80;;;;;;6253533;28;20271;-79
2024/01/20 14:09:04;;;;;;;12.77;9.67;;;2.90;65.70;;;;;;6248262;28;20230;-78
2024/01/20 14:12:09;;;;;;;11.53;9.87;;;3.00;65.70;;;;;;6260741;28;20226;-76
2024/01/20 14:15:13;;;;;;;10.93;9.83;;;2.90;65.80;;;;;;6251180;28;20317;-78
2024/01/20 14:18:16;;;;;;;12.10;10.87;;;2.90;65.80;;;;;;6260981;28;20239;-77
2024/01/20 14:21:19;;;;;;;11.43;9.77;;;3.00;65.90;;;;;;6261162;28;20250;-77
2024/01/20 14:24:24;;;;;;;13.87;9.63;;;2.90;65.90;;;;;;6258091;28;20296;-77
2024/01/20 14:27:27;;;;;;;15.63;11.10;;;3.00;65.90;;;;;;6258890;28;20376;-80
2024/01/20 14:30:30;;;;;;;13.17;9.70;;;3.00;66.10;;;;;;6246622;28;20241;-80
2024/01/20 14:33:34;;;;;;;14.73;10.30;;;2.90;66.20;;;;;;6254398;28;20254;-78
2024/01/20 14:36:37;;;;;;;14.47;10.30;;;2.90;66.20;;;;;;6251062;28;20242;-78
2024/01/20 14:39:42;;;;;;;13.30;10.17;;;2.90;66.20;;;;;;6238168;28;20435;-79
2024/01/20 14:42:45;;;;;;;11.50;10.40;;;3.00;66.20;;;;;;6233681;28;20242;-76
2024/01/20 14:45:48;;;;;;;17.13;11.30;;;2.90;66.20;;;;;;6240518;28;20291;-79
2024/01/20 14:48:51;;;;;;;11.70;9.60;;;2.80;66.70;;;;;;6236946;28;20322;-80
2024/01/20 14:51:55;;;;;;;15.23;10.07;;;2.70;66.80;;;;;;6229714;28;20311;-77
2024/01/20 14:54:59;;;;;;;13.80;10.10;;;2.70;67.10;;;;;;6226944;28;20319;-81
2024/01/20 14:58:02;;;;;;;12.73;10.00;;;2.70;67.30;;;;;;6235015;28;20256;-80
2024/01/20 15:01:06;;;;;;;15.17;9.67;;;2.70;67.10;;;;;;6232380;28;20359;-80
2024/01/20 15:04:09;;;;;;;10.80;9.70;;;2.80;66.90;;;;;;6254678;28;20270;-78
2024/01/20 15:07:13;;;;;;;11.80;9.23;;;2.70;67.20;;;;;;6248515;28;20237;-78
2024/01/20 15:10:20;;;;;;;12.30;9.47;;;2.70;67.50;;;;;;6258743;28;20859;-76
2024/01/20 15:13:23;;;;;;;13.87;10.10;;;2.70;67.70;;;;;;6247108;28;20235;-78
2024/01/20 15:16:26;;;;;;;12.73;9.47;;;2.70;67.50;;;;;;6256837;28;20246;-78
2024/01/20 15:19:30;;;;;;;16.63;9.37;;;2.70;67.60;;;;;;6248209;28;20308;-79
2024/01/20 15:22:33;;;;;;;11.40;9.87;;;2.50;67.80;;;;;;6244457;28;20783;-77
2024/01/20 15:25:38;;;;;;;11.47;9.57;;;2.60;67.90;;;;;;6251451;28;20300;-79
2024/01/20 15:28:41;;;;;;;14.30;9.43;;;2.50;68.10;;;;;;6263284;28;20242;-78
2024/01/20 15:31:44;;;;;;;10.53;9.53;;;2.50;68.00;;;;;;6263053;28;20280;-80
2024/01/20 15:34:47;;;;;;;11.77;9.90;;;2.50;68.00;;;;;;6254204;28;20250;-76
2024/01/20 15:37:50;;;;;;;13.97;9.93;;;2.50;67.90;;;;;;6258354;28;20959;-78
2024/01/20 15:40:55;;;;;;;12.63;10.33;;;2.50;68.10;;;;;;6260609;28;20373;-79
2024/01/20 15:43:59;;;;;;;11.53;10.20;;;2.40;68.30;;;;;;6248692;28;20250;-78